createdAt,value
2019-03-24T00:00:53.717Z,60.31
2019-03-24T00:02:02.158Z,61.62
2019-03-24T00:03:08.551Z,62.85
2019-03-24T00:04:17.855Z,65.21
2019-03-24T00:05:25.418Z,66.62
2019-03-24T00:06:31.948Z,66.64
2019-03-24T00:07:39.433Z,66.04
2019-03-24T00:08:46.611Z,64.99
2019-03-24T00:09:53.421Z,64.35
2019-03-24T00:11:02.798Z,63.59
2019-03-24T00:12:08.956Z,63.05
2019-03-24T00:13:17.036Z,62.51
2019-03-24T00:14:23.400Z,61.85
2019-03-24T00:15:50.219Z,61.41
2019-03-24T00:16:57.414Z,61.18
2019-03-24T00:18:05.929Z,60.69
2019-03-24T00:19:11.979Z,60.34
2019-03-24T00:20:18.739Z,59.97
2019-03-24T00:21:25.921Z,59.79
2019-03-24T00:22:32.515Z,59.65
2019-03-24T00:23:39.489Z,59.31
2019-03-24T00:24:47.159Z,58.91
2019-03-24T00:25:53.419Z,58.84
2019-03-24T00:27:00.443Z,59.63
2019-03-24T00:28:07.505Z,60.85
2019-03-24T00:29:14.933Z,61.95
2019-03-24T00:30:23.275Z,63.38
2019-03-24T00:31:30.065Z,65.94
2019-03-24T00:32:36.295Z,67.02
2019-03-24T00:33:44.296Z,66.71
2019-03-24T00:34:51.084Z,65.76
2019-03-24T00:35:57.066Z,65.10
2019-03-24T00:37:04.936Z,64.39
2019-03-24T00:38:11.452Z,63.50
2019-03-24T00:39:19.546Z,62.88
2019-03-24T00:40:26.432Z,62.20
2019-03-24T00:41:33.434Z,61.73
2019-03-24T00:42:39.743Z,61.32
2019-03-24T00:43:46.698Z,61.28
2019-03-24T00:44:53.747Z,60.91
2019-03-24T00:45:59.912Z,60.59
2019-03-24T00:47:06.642Z,60.34
2019-03-24T00:48:14.592Z,60.43
2019-03-24T00:49:20.969Z,60.37
2019-03-24T00:50:27.951Z,60.21
2019-03-24T00:51:35.241Z,60.15
2019-03-24T00:52:41.992Z,60.20
2019-03-24T00:53:48.992Z,60.18
2019-03-24T00:54:55.882Z,60.21
2019-03-24T00:56:02.762Z,60.21
2019-03-24T00:57:09.882Z,60.03
2019-03-24T00:58:18.133Z,59.83
2019-03-24T00:59:25.332Z,59.67
2019-03-24T01:00:46.934Z,59.64
2019-03-24T01:01:52.977Z,59.68
2019-03-24T01:02:59.422Z,59.44
2019-03-24T01:04:05.822Z,58.73
2019-03-24T01:05:11.842Z,58.64
2019-03-24T01:06:18.129Z,59.68
2019-03-24T01:07:25.322Z,60.66
2019-03-24T01:08:32.049Z,62.06
2019-03-24T01:09:39.132Z,64.49
2019-03-24T01:10:46.362Z,66.00
2019-03-24T01:11:53.446Z,65.94
2019-03-24T01:13:00.032Z,65.18
2019-03-24T01:14:06.744Z,64.58
2019-03-24T01:15:13.784Z,63.88
2019-03-24T01:16:21.701Z,63.16
2019-03-24T01:17:28.161Z,62.40
2019-03-24T01:18:34.207Z,61.80
2019-03-24T01:19:40.803Z,61.49
2019-03-24T01:20:47.953Z,61.08
2019-03-24T01:21:54.183Z,60.66
2019-03-24T01:23:01.073Z,60.35
2019-03-24T01:24:09.099Z,60.38
2019-03-24T01:25:15.543Z,60.25
2019-03-24T01:26:22.287Z,59.94
2019-03-24T01:27:28.821Z,59.57
2019-03-24T01:28:35.290Z,59.39
2019-03-24T01:29:42.395Z,58.67
2019-03-24T01:30:49.020Z,58.49
2019-03-24T01:31:55.008Z,59.11
2019-03-24T01:33:03.070Z,60.46
2019-03-24T01:34:09.840Z,61.51
2019-03-24T01:35:16.737Z,62.54
2019-03-24T01:36:23.169Z,64.64
2019-03-24T01:37:29.970Z,66.21
2019-03-24T01:38:37.057Z,66.03
2019-03-24T01:39:43.999Z,65.47
2019-03-24T01:40:52.480Z,64.55
2019-03-24T01:42:19.950Z,63.26
2019-03-24T01:43:26.449Z,62.35
2019-03-24T01:44:33.347Z,61.57
2019-03-24T01:45:40.007Z,61.01
2019-03-24T01:46:46.860Z,60.23
2019-03-24T01:47:53.830Z,59.78
2019-03-24T01:48:59.930Z,59.35
2019-03-24T01:50:07.839Z,58.68
2019-03-24T01:51:15.140Z,58.47
2019-03-24T01:52:21.021Z,58.97
2019-03-24T01:53:27.334Z,59.97
2019-03-24T01:54:34.060Z,60.97
2019-03-24T01:55:40.210Z,62.15
2019-03-24T01:56:47.091Z,64.14
2019-03-24T01:57:54.061Z,65.68
2019-03-24T01:59:00.168Z,65.54
2019-03-24T02:00:10.080Z,64.78
2019-03-24T02:01:16.910Z,63.82
2019-03-24T02:02:24.060Z,63.08
2019-03-24T02:03:31.571Z,62.26
2019-03-24T02:04:38.611Z,61.61
2019-03-24T02:05:45.036Z,60.93
2019-03-24T02:06:51.187Z,60.21
2019-03-24T02:07:59.807Z,59.78
2019-03-24T02:09:07.900Z,59.37
2019-03-24T02:10:15.221Z,57.92
2019-03-24T02:11:21.699Z,57.50
2019-03-24T02:12:28.209Z,58.14
2019-03-24T02:13:35.540Z,59.07
2019-03-24T02:14:43.398Z,60.01
2019-03-24T02:15:50.301Z,61.13
2019-03-24T02:16:59.216Z,62.43
2019-03-24T02:18:05.560Z,64.35
2019-03-24T02:19:12.721Z,65.81
2019-03-24T02:20:19.451Z,65.52
2019-03-24T02:21:25.456Z,64.97
2019-03-24T02:22:32.591Z,64.02
2019-03-24T02:23:39.550Z,63.07
2019-03-24T02:24:45.481Z,61.99
2019-03-24T02:25:52.091Z,60.90
2019-03-24T02:26:59.343Z,60.02
2019-03-24T02:28:06.389Z,59.26
2019-03-24T02:29:13.638Z,58.10
2019-03-24T02:30:20.494Z,57.62
2019-03-24T02:31:27.051Z,58.15
2019-03-24T02:32:34.015Z,59.11
2019-03-24T02:33:41.597Z,60.16
2019-03-24T02:34:49.500Z,61.07
2019-03-24T02:35:56.949Z,62.18
2019-03-24T02:37:03.971Z,64.24
2019-03-24T02:38:10.052Z,65.82
2019-03-24T02:39:16.856Z,65.53
2019-03-24T02:40:24.343Z,64.25
2019-03-24T02:41:30.811Z,63.28
2019-03-24T02:42:38.352Z,62.15
2019-03-24T02:43:44.973Z,60.73
2019-03-24T02:44:51.292Z,59.90
2019-03-24T02:45:58.854Z,59.14
2019-03-24T02:47:05.462Z,57.67
2019-03-24T02:48:12.869Z,57.17
2019-03-24T02:49:19.912Z,57.68
2019-03-24T02:50:26.814Z,58.34
2019-03-24T02:51:33.462Z,59.07
2019-03-24T02:52:39.983Z,60.39
2019-03-24T02:53:46.252Z,61.29
2019-03-24T02:54:53.041Z,62.17
2019-03-24T02:55:59.903Z,64.24
2019-03-24T02:57:07.105Z,65.80
2019-03-24T02:58:14.603Z,65.40
2019-03-24T02:59:21.862Z,64.25
2019-03-24T03:00:28.222Z,62.96
2019-03-24T03:01:35.357Z,61.50
2019-03-24T03:02:42.303Z,60.24
2019-03-24T03:03:49.542Z,59.44
2019-03-24T03:04:55.589Z,57.99
2019-03-24T03:06:02.144Z,57.22
2019-03-24T03:07:08.573Z,57.45
2019-03-24T03:08:35.682Z,58.16
2019-03-24T03:09:42.904Z,59.14
2019-03-24T03:10:50.512Z,60.24
2019-03-24T03:11:56.645Z,61.21
2019-03-24T03:13:02.941Z,62.12
2019-03-24T03:14:09.784Z,63.95
2019-03-24T03:15:15.951Z,65.69
2019-03-24T03:16:22.733Z,65.16
2019-03-24T03:17:30.152Z,63.90
2019-03-24T03:18:37.014Z,62.37
2019-03-24T03:19:43.141Z,61.42
2019-03-24T03:20:49.953Z,60.65
2019-03-24T03:21:56.794Z,59.47
2019-03-24T03:23:04.104Z,57.95
2019-03-24T03:24:10.557Z,57.04
2019-03-24T03:25:17.284Z,57.23
2019-03-24T03:26:24.214Z,57.89
2019-03-24T03:27:31.040Z,58.76
2019-03-24T03:28:37.172Z,59.80
2019-03-24T03:29:45.603Z,60.76
2019-03-24T03:30:52.718Z,61.62
2019-03-24T03:31:59.125Z,62.45
2019-03-24T03:33:05.718Z,64.57
2019-03-24T03:34:12.761Z,65.87
2019-03-24T03:35:18.694Z,65.32
2019-03-24T03:36:25.574Z,64.18
2019-03-24T03:37:32.275Z,63.23
2019-03-24T03:38:39.125Z,62.15
2019-03-24T03:39:45.436Z,60.94
2019-03-24T03:40:52.669Z,59.75
2019-03-24T03:41:59.227Z,58.22
2019-03-24T03:43:06.030Z,57.37
2019-03-24T03:44:12.767Z,57.49
2019-03-24T03:45:27.877Z,58.06
2019-03-24T03:46:34.722Z,58.81
2019-03-24T03:47:41.707Z,59.82
2019-03-24T03:48:47.847Z,60.61
2019-03-24T03:49:54.350Z,61.43
2019-03-24T03:51:01.467Z,62.51
2019-03-24T03:52:07.849Z,64.44
2019-03-24T03:53:14.026Z,66.04
2019-03-24T03:54:21.969Z,65.82
2019-03-24T03:55:28.764Z,64.34
2019-03-24T03:56:35.112Z,62.96
2019-03-24T03:57:41.997Z,61.74
2019-03-24T03:58:48.017Z,60.51
2019-03-24T03:59:54.592Z,59.30
2019-03-24T04:01:22.169Z,57.23
2019-03-24T04:02:28.228Z,56.29
2019-03-24T04:03:35.242Z,56.86
2019-03-24T04:04:41.846Z,57.60
2019-03-24T04:05:47.857Z,58.51
2019-03-24T04:06:54.546Z,59.46
2019-03-24T04:08:02.518Z,60.37
2019-03-24T04:09:08.404Z,61.28
2019-03-24T04:10:14.965Z,62.10
2019-03-24T04:11:21.576Z,64.22
2019-03-24T04:12:27.743Z,65.98
2019-03-24T04:13:34.871Z,65.65
2019-03-24T04:14:42.307Z,64.41
2019-03-24T04:15:49.082Z,63.26
2019-03-24T04:17:06.870Z,61.78
2019-03-24T04:18:05.989Z,60.70
2019-03-24T04:19:11.848Z,59.42
2019-03-24T04:20:18.566Z,57.70
2019-03-24T04:21:26.427Z,56.68
2019-03-24T04:22:32.607Z,56.80
2019-03-24T04:23:39.439Z,57.44
2019-03-24T04:24:46.357Z,58.22
2019-03-24T04:25:52.433Z,59.10
2019-03-24T04:26:59.016Z,60.06
2019-03-24T04:28:05.973Z,60.86
2019-03-24T04:29:14.157Z,61.76
2019-03-24T04:30:20.673Z,62.53
2019-03-24T04:31:28.547Z,64.97
2019-03-24T04:32:34.881Z,66.76
2019-03-24T04:33:42.482Z,66.35
2019-03-24T04:34:50.972Z,65.15
2019-03-24T04:35:56.921Z,63.17
2019-03-24T04:37:03.341Z,61.94
2019-03-24T04:38:10.097Z,60.74
2019-03-24T04:39:16.917Z,59.76
2019-03-24T04:40:24.497Z,58.97
2019-03-24T04:41:31.397Z,57.53
2019-03-24T04:42:37.730Z,56.63
2019-03-24T04:43:44.731Z,56.84
2019-03-24T04:44:51.916Z,57.51
2019-03-24T04:45:58.036Z,58.49
2019-03-24T04:47:16.184Z,59.23
2019-03-24T04:48:15.228Z,60.23
2019-03-24T04:49:21.485Z,61.13
2019-03-24T04:50:27.758Z,62.14
2019-03-24T04:51:34.757Z,64.09
2019-03-24T04:52:41.205Z,66.05
2019-03-24T04:53:48.119Z,66.13
2019-03-24T04:54:54.949Z,64.91
2019-03-24T04:56:00.827Z,63.54
2019-03-24T04:57:07.676Z,62.10
2019-03-24T04:58:14.537Z,61.05
2019-03-24T04:59:22.087Z,59.72
2019-03-24T05:00:38.317Z,58.21
2019-03-24T05:01:45.620Z,57.27
2019-03-24T05:02:51.416Z,57.55
2019-03-24T05:03:58.307Z,58.29
2019-03-24T05:05:06.526Z,59.24
2019-03-24T05:06:12.727Z,60.02
2019-03-24T05:07:19.759Z,61.31
2019-03-24T05:08:26.629Z,62.23
2019-03-24T05:09:32.718Z,64.04
2019-03-24T05:10:40.276Z,65.79
2019-03-24T05:11:46.707Z,65.36
2019-03-24T05:12:53.257Z,64.56
2019-03-24T05:14:00.037Z,63.37
2019-03-24T05:15:06.955Z,61.87
2019-03-24T05:16:13.787Z,60.71
2019-03-24T05:17:26.919Z,59.86
2019-03-24T05:18:29.067Z,58.73
2019-03-24T05:19:35.627Z,57.41
2019-03-24T05:20:43.487Z,56.68
2019-03-24T05:21:50.084Z,57.23
2019-03-24T05:22:56.807Z,58.01
2019-03-24T05:24:03.724Z,58.83
2019-03-24T05:25:09.928Z,59.92
2019-03-24T05:26:17.166Z,60.76
2019-03-24T05:27:24.508Z,61.65
2019-03-24T05:28:30.839Z,62.75
2019-03-24T05:29:37.798Z,64.81
2019-03-24T05:30:44.908Z,65.95
2019-03-24T05:31:50.907Z,65.32
2019-03-24T05:32:57.319Z,63.90
2019-03-24T05:34:04.231Z,62.77
2019-03-24T05:35:10.067Z,61.17
2019-03-24T05:36:16.378Z,60.16
2019-03-24T05:37:23.569Z,58.58
2019-03-24T05:38:29.908Z,56.77
2019-03-24T05:39:36.825Z,56.44
2019-03-24T05:40:43.445Z,57.00
2019-03-24T05:41:50.568Z,57.87
2019-03-24T05:42:57.319Z,58.68
2019-03-24T05:44:04.576Z,59.47
2019-03-24T05:45:10.759Z,60.46
2019-03-24T05:46:17.228Z,61.36
2019-03-24T05:47:23.985Z,62.39
2019-03-24T05:48:32.792Z,64.15
2019-03-24T05:49:40.741Z,65.24
2019-03-24T05:50:47.929Z,64.48
2019-03-24T05:51:54.398Z,62.79
2019-03-24T05:53:01.199Z,61.49
2019-03-24T05:54:08.356Z,60.27
2019-03-24T05:55:15.438Z,59.14
2019-03-24T05:56:22.838Z,56.91
2019-03-24T05:57:29.856Z,56.18
2019-03-24T05:58:36.909Z,56.42
2019-03-24T05:59:43.545Z,56.86
2019-03-24T06:00:51.469Z,57.76
2019-03-24T06:01:58.498Z,58.57
2019-03-24T06:03:05.149Z,59.25
2019-03-24T06:04:12.438Z,59.90
2019-03-24T06:05:19.309Z,60.52
2019-03-24T06:06:26.328Z,61.36
2019-03-24T06:07:33.669Z,62.13
2019-03-24T06:08:40.089Z,62.50
2019-03-24T06:09:47.696Z,64.04
2019-03-24T06:10:54.119Z,64.74
2019-03-24T06:12:00.309Z,64.09
2019-03-24T06:13:06.936Z,61.99
2019-03-24T06:14:14.593Z,60.43
2019-03-24T06:15:20.489Z,59.48
2019-03-24T06:16:26.910Z,57.41
2019-03-24T06:17:33.602Z,56.01
2019-03-24T06:18:40.469Z,55.44
2019-03-24T06:19:47.230Z,56.14
2019-03-24T06:20:53.759Z,56.95
2019-03-24T06:22:00.629Z,57.20
2019-03-24T06:23:07.589Z,57.95
2019-03-24T06:24:15.419Z,58.45
2019-03-24T06:25:21.585Z,59.05
2019-03-24T06:26:28.349Z,60.02
2019-03-24T06:27:34.957Z,60.59
2019-03-24T06:28:41.260Z,60.89
2019-03-24T06:29:48.009Z,61.12
2019-03-24T06:30:54.720Z,61.58
2019-03-24T06:32:00.840Z,62.29
2019-03-24T06:33:08.710Z,63.22
2019-03-24T06:34:15.641Z,64.71
2019-03-24T06:35:23.119Z,63.43
2019-03-24T06:36:31.321Z,60.22
2019-03-24T06:37:38.156Z,59.03
2019-03-24T06:38:44.634Z,56.73
2019-03-24T06:39:51.349Z,55.88
2019-03-24T06:40:58.440Z,55.59
2019-03-24T06:42:05.134Z,55.61
2019-03-24T06:43:11.550Z,56.05
2019-03-24T06:44:18.171Z,57.28
2019-03-24T06:45:28.719Z,57.95
2019-03-24T06:46:36.267Z,58.74
2019-03-24T06:47:45.200Z,59.27
2019-03-24T06:48:51.480Z,59.36
2019-03-24T06:49:57.997Z,59.55
2019-03-24T06:51:04.830Z,59.93
2019-03-24T06:52:11.393Z,60.32
2019-03-24T06:53:18.358Z,60.62
2019-03-24T06:54:24.882Z,60.84
2019-03-24T06:55:31.216Z,61.06
2019-03-24T06:56:37.239Z,60.94
2019-03-24T06:57:43.919Z,60.87
2019-03-24T06:58:49.769Z,60.85
2019-03-24T06:59:56.558Z,60.69
2019-03-24T07:01:03.905Z,60.31
2019-03-24T07:02:10.391Z,59.75
2019-03-24T07:03:17.223Z,58.66
2019-03-24T07:04:24.254Z,57.53
2019-03-24T07:05:30.391Z,57.71
2019-03-24T07:06:38.217Z,57.06
2019-03-24T07:07:44.932Z,57.52
2019-03-24T07:08:51.023Z,58.54
2019-03-24T07:09:57.664Z,58.18
2019-03-24T07:11:08.488Z,58.57
2019-03-24T07:12:12.121Z,59.37
2019-03-24T07:13:19.344Z,60.05
2019-03-24T07:14:26.336Z,59.91
2019-03-24T07:15:32.754Z,60.07
2019-03-24T07:16:39.191Z,60.81
2019-03-24T07:17:45.911Z,61.09
2019-03-24T07:18:51.834Z,61.26
2019-03-24T07:19:58.381Z,61.54
2019-03-24T07:21:06.205Z,62.02
2019-03-24T07:22:12.534Z,61.94
2019-03-24T07:23:19.304Z,62.12
2019-03-24T07:24:28.062Z,62.13
2019-03-24T07:25:34.390Z,62.89
2019-03-24T07:26:41.283Z,64.20
2019-03-24T07:27:49.553Z,64.59
2019-03-24T07:28:56.471Z,63.32
2019-03-24T07:30:04.311Z,60.45
2019-03-24T07:31:10.656Z,57.59
2019-03-24T07:32:17.574Z,56.34
2019-03-24T07:33:24.032Z,55.32
2019-03-24T07:34:30.702Z,55.96
2019-03-24T07:35:37.704Z,56.42
2019-03-24T07:36:44.535Z,56.76
2019-03-24T07:37:51.195Z,57.50
2019-03-24T07:38:57.516Z,56.73
2019-03-24T07:40:04.492Z,57.28
2019-03-24T07:41:11.875Z,57.76
2019-03-24T07:42:19.122Z,58.25
2019-03-24T07:43:25.842Z,58.41
2019-03-24T07:44:34.055Z,58.92
2019-03-24T07:45:42.952Z,59.28
2019-03-24T07:46:49.285Z,59.41
2019-03-24T07:47:56.432Z,59.48
2019-03-24T07:49:06.762Z,59.42
2019-03-24T07:50:13.677Z,59.88
2019-03-24T07:51:20.175Z,59.92
2019-03-24T07:52:27.205Z,60.65
2019-03-24T07:53:33.422Z,60.88
2019-03-24T07:54:41.986Z,60.94
2019-03-24T07:55:49.585Z,61.06
2019-03-24T07:56:55.603Z,61.40
2019-03-24T07:58:02.442Z,61.22
2019-03-24T07:59:10.846Z,61.20
2019-03-24T08:00:21.846Z,61.16
2019-03-24T08:01:30.016Z,61.18
2019-03-24T08:02:36.873Z,61.70
2019-03-24T08:03:44.411Z,61.77
2019-03-24T08:04:51.187Z,61.26
2019-03-24T08:06:18.784Z,60.58
2019-03-24T08:07:25.435Z,59.72
2019-03-24T08:08:32.193Z,60.26
2019-03-24T08:09:39.512Z,60.29
2019-03-24T08:10:45.513Z,60.30
2019-03-24T08:11:54.204Z,60.34
2019-03-24T08:13:00.893Z,60.35
2019-03-24T08:14:07.136Z,60.42
2019-03-24T08:15:17.032Z,60.09
2019-03-24T08:16:25.615Z,58.96
2019-03-24T08:17:32.426Z,58.98
2019-03-24T08:18:39.634Z,58.95
2019-03-24T08:19:46.952Z,58.76
2019-03-24T08:20:53.772Z,58.52
2019-03-24T08:21:59.670Z,57.81
2019-03-24T08:23:05.614Z,58.48
2019-03-24T08:24:12.154Z,58.54
2019-03-24T08:25:19.241Z,58.34
2019-03-24T08:26:26.373Z,58.35
2019-03-24T08:27:33.143Z,58.47
2019-03-24T08:28:40.900Z,58.48
2019-03-24T08:29:47.393Z,58.28
2019-03-24T08:30:54.270Z,58.39
2019-03-24T08:32:01.073Z,58.60
2019-03-24T08:33:07.580Z,58.53
2019-03-24T08:34:14.221Z,58.77
2019-03-24T08:35:20.774Z,57.67
2019-03-24T08:36:27.334Z,57.00
2019-03-24T08:37:35.232Z,57.36
2019-03-24T08:38:41.586Z,57.86
2019-03-24T08:39:48.542Z,56.78
2019-03-24T08:40:55.013Z,56.39
2019-03-24T08:42:05.696Z,55.35
2019-03-24T08:43:12.036Z,55.61
2019-03-24T08:44:18.712Z,55.92
2019-03-24T08:45:32.110Z,56.31
2019-03-24T08:46:38.493Z,56.08
2019-03-24T08:47:45.352Z,56.29
2019-03-24T08:48:53.174Z,56.57
2019-03-24T08:49:59.946Z,56.66
2019-03-24T08:51:07.682Z,56.16
2019-03-24T08:52:14.715Z,55.72
2019-03-24T08:53:21.385Z,56.26
2019-03-24T08:54:27.826Z,55.23
2019-03-24T08:55:34.505Z,54.91
2019-03-24T08:56:41.648Z,54.66
2019-03-24T08:57:47.671Z,55.19
2019-03-24T08:58:54.473Z,54.49
2019-03-24T09:00:03.767Z,54.07
2019-03-24T09:01:09.473Z,54.28
2019-03-24T09:02:15.725Z,54.77
2019-03-24T09:03:24.496Z,54.72
2019-03-24T09:04:32.148Z,53.68
2019-03-24T09:05:38.515Z,52.85
2019-03-24T09:06:46.091Z,52.75
2019-03-24T09:07:53.088Z,52.39
2019-03-24T09:09:00.394Z,53.13
2019-03-24T09:10:09.153Z,53.42
2019-03-24T09:11:30.860Z,53.65
2019-03-24T09:12:31.221Z,54.52
2019-03-24T09:13:37.788Z,54.32
2019-03-24T09:14:44.734Z,54.65
2019-03-24T09:15:52.154Z,53.92
2019-03-24T09:16:58.172Z,52.94
2019-03-24T09:18:05.243Z,52.78
2019-03-24T09:19:14.122Z,53.14
2019-03-24T09:20:20.231Z,52.59
2019-03-24T09:21:27.311Z,53.64
2019-03-24T09:22:33.997Z,51.89
2019-03-24T09:23:40.764Z,52.08
2019-03-24T09:24:48.665Z,50.89
2019-03-24T09:25:55.455Z,50.21
2019-03-24T09:27:02.043Z,49.92
2019-03-24T09:28:09.328Z,50.18
2019-03-24T09:29:15.774Z,51.06
2019-03-24T09:30:34.744Z,49.97
2019-03-24T09:31:41.003Z,50.35
2019-03-24T09:32:48.394Z,51.15
2019-03-24T09:34:02.237Z,51.65
2019-03-24T09:35:09.013Z,50.92
2019-03-24T09:36:16.914Z,50.27
2019-03-24T09:37:23.593Z,49.38
2019-03-24T09:38:30.573Z,48.91
2019-03-24T09:39:37.473Z,49.46
2019-03-24T09:40:43.554Z,49.18
2019-03-24T09:41:49.973Z,50.01
2019-03-24T09:44:20.876Z,49.89
2019-03-24T09:45:27.533Z,49.26
2019-03-24T09:46:35.333Z,49.84
2019-03-24T09:47:45.343Z,49.65
2019-03-24T09:49:02.455Z,49.85
2019-03-24T09:50:00.533Z,50.83
2019-03-24T09:51:06.643Z,51.10
2019-03-24T09:52:14.893Z,50.86
2019-03-24T09:53:21.015Z,50.45
2019-03-24T09:54:27.346Z,50.18
2019-03-24T09:55:34.903Z,50.33
2019-03-24T09:56:42.158Z,50.44
2019-03-24T09:57:49.238Z,50.64
2019-03-24T09:58:57.847Z,49.24
2019-03-24T10:00:05.018Z,48.83
2019-03-24T10:01:11.256Z,48.42
2019-03-24T10:02:17.895Z,49.17
2019-03-24T10:03:25.424Z,49.16
2019-03-24T10:04:31.734Z,49.19
2019-03-24T10:05:40.016Z,48.49
2019-03-24T10:06:47.054Z,49.21
2019-03-24T10:07:52.966Z,49.77
2019-03-24T10:09:00.984Z,50.21
2019-03-24T10:10:09.633Z,50.14
2019-03-24T10:11:16.576Z,49.90
2019-03-24T10:12:23.976Z,49.95
2019-03-24T10:13:30.746Z,50.17
2019-03-24T10:14:36.716Z,50.98
2019-03-24T10:15:43.746Z,50.95
2019-03-24T10:16:50.888Z,50.96
2019-03-24T10:17:56.924Z,51.04
2019-03-24T10:19:13.271Z,50.17
2019-03-24T10:20:11.563Z,50.86
2019-03-24T10:21:17.816Z,49.42
2019-03-24T10:22:26.059Z,49.51
2019-03-24T10:23:34.228Z,49.51
2019-03-24T10:24:40.713Z,49.09
2019-03-24T10:25:46.717Z,49.03
2019-03-24T10:26:52.606Z,48.91
2019-03-24T10:27:58.890Z,49.52
2019-03-24T10:29:05.947Z,49.25
2019-03-24T10:30:12.427Z,49.77
2019-03-24T10:31:18.524Z,50.32
2019-03-24T10:32:24.545Z,50.70
2019-03-24T10:33:30.646Z,50.87
2019-03-24T10:34:36.548Z,50.06
2019-03-24T10:35:43.284Z,50.03
2019-03-24T10:36:50.055Z,50.74
2019-03-24T10:37:57.324Z,50.63
2019-03-24T10:39:06.004Z,47.90
2019-03-24T10:40:13.858Z,47.05
2019-03-24T10:41:20.095Z,47.82
2019-03-24T10:42:26.538Z,46.73
2019-03-24T10:43:32.874Z,46.46
2019-03-24T10:44:40.434Z,46.83
2019-03-24T10:45:47.345Z,47.62
2019-03-24T10:46:53.944Z,47.95
2019-03-24T10:48:02.338Z,48.31
2019-03-24T10:49:08.935Z,47.59
2019-03-24T10:50:16.634Z,47.88
2019-03-24T10:51:23.794Z,46.94
2019-03-24T10:52:30.108Z,47.06
2019-03-24T10:53:36.795Z,47.43
2019-03-24T10:54:43.518Z,48.12
2019-03-24T10:55:50.164Z,47.59
2019-03-24T10:56:58.275Z,47.40
2019-03-24T10:58:04.714Z,46.40
2019-03-24T10:59:11.744Z,46.94
2019-03-24T11:00:23.958Z,46.53
2019-03-24T11:01:31.736Z,46.35
2019-03-24T11:02:39.245Z,46.88
2019-03-24T11:03:45.868Z,46.92
2019-03-24T11:04:52.337Z,46.76
2019-03-24T11:05:59.830Z,47.08
2019-03-24T11:07:06.416Z,47.72
2019-03-24T11:08:13.474Z,49.03
2019-03-24T11:09:22.477Z,47.53
2019-03-24T11:10:29.658Z,45.93
2019-03-24T11:11:35.717Z,46.49
2019-03-24T11:12:42.423Z,46.14
2019-03-24T11:13:49.419Z,46.23
2019-03-24T11:14:56.058Z,46.42
2019-03-24T11:16:03.278Z,45.62
2019-03-24T11:17:10.600Z,46.00
2019-03-24T11:18:17.051Z,45.95
2019-03-24T11:19:35.035Z,46.42
2019-03-24T11:20:35.780Z,45.88
2019-03-24T11:21:42.263Z,46.10
2019-03-24T11:22:48.800Z,46.19
2019-03-24T11:23:55.840Z,45.96
2019-03-24T11:25:02.093Z,45.44
2019-03-24T11:26:09.000Z,46.29
2019-03-24T11:27:15.473Z,46.59
2019-03-24T11:28:21.483Z,45.85
2019-03-24T11:29:27.584Z,45.35
2019-03-24T11:30:34.023Z,45.09
2019-03-24T11:31:40.153Z,45.11
2019-03-24T11:32:48.193Z,43.78
2019-03-24T11:33:55.161Z,43.82
2019-03-24T11:35:02.122Z,43.51
2019-03-24T11:36:10.213Z,43.25
2019-03-24T11:37:17.312Z,43.32
2019-03-24T11:38:24.561Z,41.73
2019-03-24T11:39:32.800Z,41.21
2019-03-24T11:40:59.983Z,42.52
2019-03-24T11:42:07.214Z,41.49
2019-03-24T11:43:13.298Z,40.93
2019-03-24T11:44:20.229Z,41.24
2019-03-24T11:45:29.341Z,42.09
2019-03-24T11:46:35.862Z,43.37
2019-03-24T11:47:42.358Z,43.50
2019-03-24T11:48:50.069Z,42.80
2019-03-24T11:49:57.278Z,42.76
2019-03-24T11:51:03.241Z,41.43
2019-03-24T11:52:09.460Z,41.37
2019-03-24T11:53:16.218Z,41.23
2019-03-24T11:54:25.315Z,42.16
2019-03-24T11:55:32.510Z,42.48
2019-03-24T11:56:39.149Z,42.67
2019-03-24T11:57:45.559Z,42.72
2019-03-24T11:58:52.302Z,42.77
2019-03-24T11:59:58.989Z,42.63
2019-03-24T12:01:05.223Z,42.08
2019-03-24T12:02:14.291Z,42.61
2019-03-24T12:03:21.671Z,43.22
2019-03-24T12:04:29.562Z,44.06
2019-03-24T12:05:37.916Z,43.78
2019-03-24T12:06:45.111Z,42.92
2019-03-24T12:07:51.481Z,43.41
2019-03-24T12:08:59.674Z,44.05
2019-03-24T12:10:28.331Z,44.13
2019-03-24T12:11:35.065Z,42.43
2019-03-24T12:13:02.721Z,42.01
2019-03-24T12:14:10.583Z,41.79
2019-03-24T12:15:17.804Z,42.71
2019-03-24T12:16:25.442Z,41.58
2019-03-24T12:17:33.761Z,42.28
2019-03-24T12:18:40.914Z,42.33
2019-03-24T12:19:56.422Z,42.18
2019-03-24T12:20:56.084Z,42.29
2019-03-24T12:22:03.894Z,41.61
2019-03-24T12:23:10.914Z,42.04
2019-03-24T12:24:18.801Z,41.07
2019-03-24T12:25:26.692Z,40.94
2019-03-24T12:26:33.761Z,40.48
2019-03-24T12:27:40.681Z,40.70
2019-03-24T12:28:47.312Z,40.60
2019-03-24T12:29:54.597Z,41.29
2019-03-24T12:31:02.814Z,41.80
2019-03-24T12:32:10.542Z,41.86
2019-03-24T12:33:17.431Z,41.94
2019-03-24T12:34:24.522Z,41.89
2019-03-24T12:35:30.715Z,43.04
2019-03-24T12:36:37.561Z,42.60
2019-03-24T12:37:44.901Z,43.40
2019-03-24T12:38:51.184Z,42.74
2019-03-24T12:39:59.812Z,42.57
2019-03-24T12:41:07.402Z,41.95
2019-03-24T12:42:15.299Z,41.34
2019-03-24T12:43:22.602Z,42.10
2019-03-24T12:44:29.307Z,42.41
2019-03-24T12:45:35.632Z,42.01
2019-03-24T12:46:44.275Z,42.22
2019-03-24T12:47:52.032Z,43.34
2019-03-24T12:48:58.412Z,42.52
2019-03-24T12:50:09.966Z,42.91
2019-03-24T12:51:17.004Z,42.35
2019-03-24T12:52:23.356Z,42.21
2019-03-24T12:53:29.963Z,42.79
2019-03-24T12:54:36.931Z,42.77
2019-03-24T12:55:44.634Z,43.31
2019-03-24T12:56:51.562Z,42.41
2019-03-24T12:57:58.763Z,42.17
2019-03-24T12:59:05.004Z,41.01
2019-03-24T13:00:14.076Z,40.88
2019-03-24T13:01:21.649Z,40.97
2019-03-24T13:02:29.125Z,42.34
2019-03-24T13:03:35.965Z,42.60
2019-03-24T13:04:42.922Z,41.80
2019-03-24T13:05:49.993Z,41.52
2019-03-24T13:06:57.621Z,42.40
2019-03-24T13:08:18.293Z,41.38
2019-03-24T13:09:24.660Z,42.13
2019-03-24T13:10:31.836Z,40.97
2019-03-24T13:11:38.077Z,41.15
2019-03-24T13:12:45.173Z,40.45
2019-03-24T13:13:52.325Z,39.83
2019-03-24T13:14:58.645Z,39.38
2019-03-24T13:16:06.064Z,39.30
2019-03-24T13:17:15.253Z,39.66
2019-03-24T13:18:21.642Z,39.21
2019-03-24T13:19:28.368Z,39.31
2019-03-24T13:20:38.754Z,39.45
2019-03-24T13:21:47.117Z,39.62
2019-03-24T13:22:54.192Z,37.92
2019-03-24T13:24:01.690Z,37.66
2019-03-24T13:25:08.702Z,35.32
2019-03-24T13:26:15.408Z,34.77
2019-03-24T13:27:22.340Z,35.08
2019-03-24T13:28:28.460Z,34.01
2019-03-24T13:29:35.473Z,33.77
2019-03-24T13:30:43.575Z,33.62
2019-03-24T13:31:49.745Z,36.03
2019-03-24T13:32:56.813Z,33.75
2019-03-24T13:34:04.283Z,33.14
2019-03-24T13:35:10.916Z,33.00
2019-03-24T13:36:17.993Z,34.09
2019-03-24T13:37:25.123Z,33.84
2019-03-24T13:38:31.686Z,33.39
2019-03-24T13:39:38.844Z,32.93
2019-03-24T13:40:46.266Z,33.44
2019-03-24T13:41:52.618Z,33.49
2019-03-24T13:43:00.111Z,33.33
2019-03-24T13:44:07.175Z,33.07
2019-03-24T13:45:13.685Z,32.88
2019-03-24T13:46:21.274Z,33.59
2019-03-24T13:47:28.204Z,34.10
2019-03-24T13:48:34.833Z,33.71
2019-03-24T13:49:42.213Z,33.15
2019-03-24T13:50:49.763Z,33.40
2019-03-24T13:51:56.338Z,33.57
2019-03-24T13:53:03.804Z,34.22
2019-03-24T13:54:11.493Z,33.62
2019-03-24T13:55:18.613Z,33.95
2019-03-24T13:56:25.565Z,34.48
2019-03-24T13:57:32.863Z,34.51
2019-03-24T13:58:39.893Z,35.05
2019-03-24T13:59:47.556Z,35.48
2019-03-24T14:00:54.643Z,35.37
2019-03-24T14:02:00.983Z,35.90
2019-03-24T14:03:07.856Z,36.41
2019-03-24T14:04:21.096Z,36.79
2019-03-24T14:05:27.576Z,36.69
2019-03-24T14:06:35.234Z,37.23
2019-03-24T14:07:42.367Z,37.23
2019-03-24T14:08:49.076Z,37.39
2019-03-24T14:09:55.556Z,38.12
2019-03-24T14:11:02.404Z,37.89
2019-03-24T14:12:08.856Z,38.35
2019-03-24T14:13:16.209Z,38.51
2019-03-24T14:14:23.247Z,38.95
2019-03-24T14:15:29.903Z,39.01
2019-03-24T14:16:36.563Z,39.10
2019-03-24T14:17:43.743Z,39.62
2019-03-24T14:18:52.144Z,41.85
2019-03-24T14:19:59.663Z,41.08
2019-03-24T14:21:08.387Z,40.58
2019-03-24T14:22:15.297Z,40.39
2019-03-24T14:23:22.204Z,40.41
2019-03-24T14:24:28.964Z,40.57
2019-03-24T14:25:35.583Z,40.58
2019-03-24T14:26:42.877Z,40.42
2019-03-24T14:27:50.457Z,40.58
2019-03-24T14:28:57.156Z,40.68